createdAt,value
2023-08-05T00:19:01.468Z,66.18
2023-08-05T00:24:02.938Z,66.32
2023-08-05T00:29:04.309Z,66.42
2023-08-05T00:34:06.182Z,66.38
2023-08-05T00:39:07.494Z,66.46
2023-08-05T00:44:08.808Z,66.53
2023-08-05T00:49:11.088Z,66.79
2023-08-05T00:54:12.955Z,66.94
2023-08-05T00:59:15.307Z,66.84
2023-08-05T01:04:16.914Z,67.05
2023-08-05T01:09:18.539Z,67.31
2023-08-05T01:14:19.996Z,67.28
2023-08-05T01:19:27.181Z,67.58
2023-08-05T01:24:39.923Z,67.74
2023-08-05T01:29:41.390Z,67.94
2023-08-05T01:34:43.707Z,67.92
2023-08-05T01:39:44.974Z,68.15
2023-08-05T01:44:46.963Z,68.34
2023-08-05T01:49:48.265Z,68.58
2023-08-05T01:54:49.709Z,68.64
2023-08-05T01:59:51.015Z,68.77
2023-08-05T02:04:52.328Z,68.88
2023-08-05T02:09:53.683Z,69.04
2023-08-05T02:14:55.035Z,69.11
2023-08-05T02:19:56.630Z,68.91
2023-08-05T02:24:57.895Z,69.21
2023-08-05T02:29:59.230Z,69.20
2023-08-05T02:35:00.536Z,69.19
2023-08-05T02:40:02.233Z,69.15
2023-08-05T02:45:04.177Z,69.38
2023-08-05T02:50:09.769Z,69.47
2023-08-05T02:55:11.009Z,69.47
2023-08-05T03:00:12.823Z,69.64
2023-08-05T03:05:14.269Z,69.66
2023-08-05T03:10:16.007Z,69.79
2023-08-05T03:15:17.488Z,69.76
2023-08-05T03:20:35.082Z,69.70
2023-08-05T03:25:41.257Z,69.98
2023-08-05T03:30:43.209Z,70.22
2023-08-05T03:35:48.708Z,70.54
2023-08-05T03:40:52.911Z,70.48
2023-08-05T03:45:54.503Z,70.56
2023-08-05T03:50:56.027Z,70.72
2023-08-05T03:55:57.478Z,70.75
2023-08-05T04:01:01.187Z,70.73
2023-08-05T04:06:03.112Z,70.93
2023-08-05T04:11:05.611Z,71.00
2023-08-05T04:16:09.274Z,71.22
2023-08-05T04:21:11.387Z,71.17
2023-08-05T04:26:13.028Z,71.28
2023-08-05T04:31:14.815Z,71.13
2023-08-05T04:36:16.130Z,71.08
2023-08-05T04:41:17.424Z,70.87
2023-08-05T04:46:18.834Z,70.81
2023-08-05T04:51:20.145Z,70.82
2023-08-05T04:56:25.700Z,70.69
2023-08-05T05:01:27.307Z,70.89
2023-08-05T05:06:28.588Z,70.78
2023-08-05T05:11:29.870Z,70.59
2023-08-05T05:16:31.241Z,70.49
2023-08-05T05:21:32.662Z,70.23
2023-08-05T05:26:34.127Z,70.03
2023-08-05T05:31:35.494Z,69.91
2023-08-05T05:36:36.921Z,69.89
2023-08-05T05:41:38.214Z,69.76
2023-08-05T05:46:39.680Z,69.64
2023-08-05T05:51:42.816Z,69.49
2023-08-05T05:56:44.388Z,69.08
2023-08-05T06:01:45.770Z,68.87
2023-08-05T06:06:49.153Z,68.59
2023-08-05T06:11:50.791Z,68.43
2023-08-05T06:16:52.392Z,68.12
2023-08-05T06:21:54.242Z,68.34
2023-08-05T06:26:55.939Z,68.20
2023-08-05T06:31:57.253Z,67.97
2023-08-05T06:36:58.583Z,67.61
2023-08-05T06:42:00.267Z,67.46
2023-08-05T06:47:03.045Z,67.33
2023-08-05T06:52:05.573Z,67.06
2023-08-05T06:57:07.886Z,66.78
2023-08-05T07:02:09.193Z,66.23
2023-08-05T07:07:10.481Z,66.05
2023-08-05T07:12:11.775Z,65.87
2023-08-05T07:17:13.107Z,65.57
2023-08-05T07:22:14.381Z,65.60
2023-08-05T07:27:15.850Z,65.13
2023-08-05T07:32:17.177Z,65.00
2023-08-05T07:37:18.826Z,65.08
2023-08-05T07:42:23.338Z,64.72
2023-08-05T07:47:25.488Z,64.30
2023-08-05T07:52:26.897Z,64.15
2023-08-05T07:57:28.243Z,64.25
2023-08-05T08:02:29.549Z,64.18
2023-08-05T08:07:31.480Z,64.02
2023-08-05T08:12:32.771Z,63.90
2023-08-05T08:17:34.105Z,63.98
2023-08-05T08:22:35.871Z,64.00
2023-08-05T08:27:37.450Z,63.83
2023-08-05T08:32:39.243Z,63.72
2023-08-05T08:37:40.691Z,63.63
2023-08-05T08:42:43.390Z,63.42
2023-08-05T08:47:47.095Z,63.08
2023-08-05T08:52:49.961Z,62.63
2023-08-05T08:57:51.731Z,62.34
2023-08-05T09:02:53.842Z,61.81
2023-08-05T09:07:56.055Z,61.50
2023-08-05T09:12:58.501Z,61.02
2023-08-05T09:18:01.540Z,60.47
2023-08-05T09:23:06.512Z,60.18
2023-08-05T09:28:08.715Z,59.70
2023-08-05T09:33:10.057Z,59.27
2023-08-05T09:38:11.386Z,58.75
2023-08-05T09:43:15.081Z,58.28
2023-08-05T09:48:16.973Z,57.96
2023-08-05T09:53:22.578Z,57.34
2023-08-05T09:58:24.096Z,57.08
2023-08-05T10:03:27.102Z,56.92
2023-08-05T10:08:28.767Z,56.61
2023-08-05T10:13:37.780Z,56.37
2023-08-05T10:18:39.409Z,56.19
2023-08-05T10:23:40.905Z,56.10
2023-08-05T10:28:43.112Z,55.78
2023-08-05T10:34:18.017Z,55.81
2023-08-05T10:39:41.127Z,55.52
2023-08-05T10:44:42.513Z,55.78
2023-08-05T10:49:43.830Z,55.96
2023-08-05T10:54:47.350Z,56.05
2023-08-05T11:00:01.688Z,56.29
2023-08-05T11:05:08.170Z,56.63
2023-08-05T11:10:12.545Z,56.58
2023-08-05T11:15:13.915Z,56.61
2023-08-05T11:20:15.253Z,56.87
2023-08-05T11:25:18.802Z,57.17
2023-08-05T11:30:20.678Z,57.18
2023-08-05T11:35:23.437Z,57.71
2023-08-05T11:40:25.511Z,57.93
2023-08-05T11:45:27.007Z,58.48
2023-08-05T11:50:36.033Z,58.70
2023-08-05T11:55:40.043Z,58.94
2023-08-05T12:00:52.211Z,59.31
2023-08-05T12:06:01.213Z,59.21
2023-08-05T12:11:02.775Z,59.58
2023-08-05T12:16:16.592Z,59.91
2023-08-05T12:21:17.953Z,60.41
2023-08-05T12:26:27.169Z,60.74
2023-08-05T12:31:31.675Z,60.69
2023-08-05T12:36:33.038Z,61.41
2023-08-05T12:41:34.291Z,62.00
2023-08-05T12:46:35.962Z,62.39
2023-08-05T12:51:37.276Z,62.57
2023-08-05T12:56:38.581Z,62.43
2023-08-05T13:01:40.254Z,62.60
2023-08-05T13:06:41.628Z,63.15
2023-08-05T13:11:42.950Z,63.40
2023-08-05T13:16:44.461Z,63.77
2023-08-05T13:21:46.009Z,64.03
2023-08-05T13:26:47.348Z,64.18
2023-08-05T13:31:48.608Z,64.37
2023-08-05T13:36:50.233Z,64.46
2023-08-05T13:41:57.551Z,64.73
2023-08-05T13:46:59.177Z,65.04
2023-08-05T13:52:00.537Z,65.10
2023-08-05T13:57:02.743Z,65.24
2023-08-05T14:02:04.698Z,65.46
2023-08-05T14:07:06.181Z,65.70
2023-08-05T14:12:08.121Z,65.98
2023-08-05T14:17:09.464Z,66.21
2023-08-05T14:22:12.143Z,66.28
2023-08-05T14:27:13.744Z,66.43
2023-08-05T14:32:15.068Z,66.63
2023-08-05T14:37:16.545Z,66.90
2023-08-05T14:42:17.807Z,67.06
2023-08-05T14:47:19.148Z,67.29
2023-08-05T14:52:20.581Z,67.14
2023-08-05T14:57:21.986Z,67.52
2023-08-05T15:02:23.337Z,68.04
2023-08-05T15:07:25.116Z,68.30
2023-08-05T15:12:26.408Z,68.46
2023-08-05T15:17:27.987Z,68.78
2023-08-05T15:22:29.411Z,68.84
2023-08-05T15:27:30.993Z,68.79
2023-08-05T15:32:32.734Z,68.78
2023-08-05T15:37:34.048Z,68.91
2023-08-05T15:42:35.443Z,69.24
2023-08-05T15:47:36.772Z,69.49
2023-08-05T15:52:38.165Z,69.51
2023-08-05T15:57:40.004Z,69.59
2023-08-05T16:02:41.810Z,69.97
2023-08-05T16:07:43.465Z,70.11
2023-08-05T16:12:44.819Z,70.34
2023-08-05T16:17:46.148Z,70.30
2023-08-05T16:22:47.522Z,70.43
2023-08-05T16:27:48.828Z,70.44
2023-08-05T16:32:50.147Z,70.35
2023-08-05T16:37:53.823Z,69.95
2023-08-05T16:42:55.128Z,69.90
2023-08-05T16:47:56.437Z,69.84
2023-08-05T16:52:57.798Z,69.74
2023-08-05T16:57:59.087Z,69.24
2023-08-05T17:03:00.745Z,69.05
2023-08-05T17:08:02.465Z,69.00
2023-08-05T17:13:03.897Z,68.60
2023-08-05T17:18:05.247Z,68.61
2023-08-05T17:23:06.675Z,68.39
2023-08-05T17:28:08.620Z,68.69
2023-08-05T17:33:12.055Z,68.85
2023-08-05T17:38:13.385Z,69.04
2023-08-05T17:43:14.828Z,69.44
2023-08-05T17:48:19.074Z,69.86
2023-08-05T17:53:25.548Z,70.54
2023-08-05T17:58:27.480Z,70.69
2023-08-05T18:03:28.856Z,71.13
2023-08-05T18:08:30.154Z,71.36
2023-08-05T18:13:31.446Z,71.69
2023-08-05T18:18:32.759Z,71.71
2023-08-05T18:23:34.178Z,72.18
2023-08-05T18:28:35.523Z,72.47
2023-08-05T18:33:37.001Z,72.84
2023-08-05T18:38:38.333Z,73.02
2023-08-05T18:43:39.985Z,73.55
2023-08-05T18:48:41.501Z,73.83
2023-08-05T18:53:42.807Z,74.09
2023-08-05T18:58:44.078Z,74.25
2023-08-05T19:03:45.494Z,74.54
2023-08-05T19:08:46.863Z,74.78
2023-08-05T19:13:48.293Z,74.96
2023-08-05T19:18:49.619Z,74.95
2023-08-05T19:23:50.933Z,74.82
2023-08-05T19:28:52.238Z,74.78
2023-08-05T19:33:53.615Z,74.75
2023-08-05T19:38:54.873Z,74.89
2023-08-05T19:43:56.193Z,74.87
2023-08-05T19:48:57.604Z,74.86
2023-08-05T19:53:58.988Z,74.81
2023-08-05T19:59:00.351Z,74.90
2023-08-05T20:04:01.725Z,74.95
2023-08-05T20:09:03.057Z,75.00
2023-08-05T20:14:04.428Z,75.11
2023-08-05T20:19:05.775Z,75.35
2023-08-05T20:24:07.122Z,75.50
2023-08-05T20:29:08.647Z,75.71
2023-08-05T20:34:09.933Z,75.88
2023-08-05T20:39:12.295Z,76.08
2023-08-05T20:44:13.648Z,76.22
2023-08-05T20:49:14.930Z,76.25
2023-08-05T20:54:16.224Z,76.30
2023-08-05T20:59:17.542Z,76.22
2023-08-05T21:04:19.786Z,75.99
2023-08-05T21:09:21.109Z,75.89
2023-08-05T21:14:22.451Z,76.00
2023-08-05T21:19:23.819Z,76.09
2023-08-05T21:24:25.176Z,76.23
2023-08-05T21:29:26.483Z,76.32
2023-08-05T21:34:27.802Z,76.19
2023-08-05T21:39:29.174Z,76.18
2023-08-05T21:44:30.511Z,76.14
2023-08-05T21:49:31.999Z,76.15
2023-08-05T21:54:33.499Z,76.03
2023-08-05T21:59:35.349Z,76.26
2023-08-05T22:04:36.827Z,76.34
2023-08-05T22:09:38.305Z,76.68
2023-08-05T22:14:39.705Z,76.67
2023-08-05T22:19:41.236Z,76.71
2023-08-05T22:24:42.722Z,76.78
2023-08-05T22:29:44.293Z,76.86
2023-08-05T22:34:45.597Z,76.70
2023-08-05T22:39:47.253Z,76.73
2023-08-05T22:44:52.997Z,76.62
2023-08-05T22:49:54.181Z,76.47
2023-08-05T22:54:55.497Z,76.51
2023-08-05T22:59:57.033Z,76.64
2023-08-05T23:04:58.448Z,76.77
2023-08-05T23:10:02.487Z,76.94
2023-08-05T23:15:04.392Z,76.97
2023-08-05T23:20:06.903Z,77.09
2023-08-05T23:25:08.533Z,77.04
2023-08-05T23:30:10.144Z,76.92
2023-08-05T23:35:11.860Z,76.98
2023-08-05T23:40:13.297Z,76.97
2023-08-05T23:45:15.465Z,76.83
2023-08-05T23:50:17.438Z,76.79
2023-08-05T23:55:18.807Z,76.87
